The Highlands, Arkansas
Current Conditions -  °F | °C
As of 2:15 PM on Wednesday 26 Nov 2014 (Local Time) from KVBT Reporting Station
Overcast Overcast  
Wind Chill: 43°   Ceiling: 6000
Heat Index: 48°   Visibility: 10mi
Dew Point: 27°   Wind: 14mph
Humidity: 43%   Direction: 320°NW
Pressure: 30.09"   Gusts: 25mph
Location:  36.4745°N, 94.3131°W
Report Text: KVBT 262015Z AUTO 32012G22KT 10SM BKN060 OVC070 09/M03 A3009 RMK AO1
Loading
Personal Weather Stations






























Interactive Weather Map New forecast layout! Learn more

10-Day Weather Forecast

Advertisements
Track Severe Weather on mobile